Time;durP1;ratioP1;P1;durP2;ratioP2;P2;SDS_P1;SDS_P2;PMS_P1;PMS_P2;Temp;Humidity;BMP_temperature;BMP_pressure;BME280_temperature;BME280_humidity;BME280_pressure;Samples;Min_cycle;Max_cycle;Signal;HPM_P1;HPM_P2
2023/11/11 00:07:54;;;;;;;;;;;7.50;99.90;;;;;;21261909;27;19919;-77
2023/11/11 00:17:54;;;;;;;;;;;7.50;99.90;;;;;;21251220;27;20282;-78
2023/11/11 00:27:55;;;;;;;;;;;7.40;99.90;;;;;;21250852;27;19939;-78
2023/11/11 00:37:56;;;;;;;;;;;7.30;99.90;;;;;;21257969;27;20400;-78
2023/11/11 00:47:56;;;;;;;;;;;7.10;99.90;;;;;;21254745;27;19911;-78
2023/11/11 00:57:57;;;;;;;;;;;7.10;99.90;;;;;;21254062;27;20010;-77
2023/11/11 01:07:58;;;;;;;;;;;7.00;99.90;;;;;;21250322;27;19919;-78
2023/11/11 01:17:58;;;;;;;;;;;6.80;99.90;;;;;;21252343;27;19922;-78
2023/11/11 01:27:59;;;;;;;;;;;6.70;99.90;;;;;;21203235;27;19999;-79
2023/11/11 01:38:00;;;;;;;;;;;6.80;99.90;;;;;;21238049;27;19921;-78
2023/11/11 01:48:00;;;;;;;;;;;6.70;99.90;;;;;;21235339;27;19911;-79
2023/11/11 01:58:01;;;;;;;;;;;6.60;99.90;;;;;;21249334;27;19915;-78
2023/11/11 02:08:04;;;;;;;;;;;6.30;99.90;;;;;;21244341;27;20427;-78
2023/11/11 02:18:05;;;;;;;;;;;6.30;99.90;;;;;;21255279;27;19919;-78
2023/11/11 02:28:05;;;;;;;;;;;6.10;99.90;;;;;;21259067;27;20308;-79
2023/11/11 02:38:06;;;;;;;;;;;6.10;99.90;;;;;;21274805;27;19915;-79
2023/11/11 02:48:07;;;;;;;;;;;6.10;99.90;;;;;;21253533;27;20004;-78
2023/11/11 02:58:07;;;;;;;;;;;6.00;99.90;;;;;;21243794;27;20340;-78
2023/11/11 03:08:08;;;;;;;;;;;6.00;99.90;;;;;;21274503;27;19915;-78
2023/11/11 03:18:09;;;;;;;;;;;6.00;99.90;;;;;;21256464;27;19960;-78
2023/11/11 03:28:09;;;;;;;;;;;5.90;99.90;;;;;;21251934;27;19955;-79
2023/11/11 03:38:10;;;;;;;;;;;5.90;99.90;;;;;;21274227;27;19916;-78
2023/11/11 03:48:12;;;;;;;;;;;5.80;99.90;;;;;;21255902;27;19919;-78
2023/11/11 03:58:12;;;;;;;;;;;5.70;99.90;;;;;;21269762;27;19915;-78
2023/11/11 04:08:13;;;;;;;;;;;5.60;99.90;;;;;;21252274;27;20016;-78
2023/11/11 04:18:14;;;;;;;;;;;5.60;99.90;;;;;;21253772;27;19919;-77
2023/11/11 04:28:15;;;;;;;;;;;5.60;99.90;;;;;;21260866;27;19923;-78
2023/11/11 04:38:15;;;;;;;;;;;5.60;99.90;;;;;;21266543;27;19923;-78
2023/11/11 04:48:16;;;;;;;;;;;5.60;99.90;;;;;;21258647;27;21289;-77
2023/11/11 04:58:17;;;;;;;;;;;5.70;99.90;;;;;;21256254;27;19930;-78
2023/11/11 05:08:17;;;;;;;;;;;5.70;99.90;;;;;;21225941;27;19919;-78
2023/11/11 05:18:19;;;;;;;;;;;5.50;99.90;;;;;;21242937;27;19915;-79
2023/11/11 05:28:20;;;;;;;;;;;5.50;99.90;;;;;;21226680;27;19995;-78
2023/11/11 05:38:20;;;;;;;;;;;5.60;99.90;;;;;;21237449;27;19970;-78
2023/11/11 05:48:21;;;;;;;;;;;5.60;99.90;;;;;;21263021;27;19911;-78
2023/11/11 05:58:22;;;;;;;;;;;5.60;99.90;;;;;;21251644;27;19915;-77
2023/11/11 06:08:22;;;;;;;;;;;5.60;99.90;;;;;;21245164;27;20416;-78
2023/11/11 06:18:24;;;;;;;;;;;5.60;99.90;;;;;;21255327;27;19924;-78
2023/11/11 06:28:25;;;;;;;;;;;5.60;99.90;;;;;;21246572;27;20340;-78
2023/11/11 06:38:26;;;;;;;;;;;5.60;99.90;;;;;;21228147;27;19960;-78
2023/11/11 06:48:27;;;;;;;;;;;5.60;99.90;;;;;;21257460;27;19956;-78
2023/11/11 06:58:27;;;;;;;;;;;5.90;99.90;;;;;;21248356;27;20362;-79
2023/11/11 07:08:28;;;;;;;;;;;6.10;99.90;;;;;;21247513;27;20437;-78
2023/11/11 07:18:28;;;;;;;;;;;5.80;99.90;;;;;;21250112;27;19979;-79
2023/11/11 07:28:29;;;;;;;;;;;5.80;99.90;;;;;;21267468;27;19915;-80
2023/11/11 07:38:31;;;;;;;;;;;5.90;99.90;;;;;;21324388;27;20289;-79
2023/11/11 07:48:33;;;;;;;;;;;6.00;99.90;;;;;;21351563;27;19975;-80
2023/11/11 07:58:34;;;;;;;;;;;6.00;99.90;;;;;;21357005;27;20413;-78
2023/11/11 08:08:35;;;;;;;;;;;6.10;99.90;;;;;;21348335;27;19917;-80
2023/11/11 08:18:36;;;;;;;;;;;6.40;99.90;;;;;;21387770;27;19923;-80
2023/11/11 08:28:37;;;;;;;;;;;6.40;99.90;;;;;;21386328;27;19915;-78
2023/11/11 08:38:37;;;;;;;;;;;6.40;99.90;;;;;;21307284;27;19915;-79
2023/11/11 08:48:40;;;;;;;;;;;6.80;99.90;;;;;;21334236;27;19919;-80
2023/11/11 08:58:41;;;;;;;;;;;7.10;99.90;;;;;;21308131;27;19941;-77
2023/11/11 09:08:42;;;;;;;;;;;7.70;99.90;;;;;;21264095;27;19911;-79
2023/11/11 09:18:43;;;;;;;;;;;8.10;99.90;;;;;;21248072;27;19957;-76
2023/11/11 09:28:44;;;;;;;;;;;10.40;99.90;;;;;;21241551;27;19916;-77
2023/11/11 09:38:44;;;;;;;;;;;9.40;99.90;;;;;;21178524;28;20047;-77
2023/11/11 09:48:45;;;;;;;;;;;8.80;99.90;;;;;;21178859;28;19975;-78
2023/11/11 09:58:47;;;;;;;;;;;9.80;99.90;;;;;;21178549;28;19920;-77
2023/11/11 10:08:47;;;;;;;;;;;8.70;99.90;;;;;;21181470;28;19943;-79
2023/11/11 10:18:49;;;;;;;;;;;8.50;99.90;;;;;;21178896;28;19919;-78
2023/11/11 10:28:50;;;;;;;;;;;8.20;99.90;;;;;;21198622;27;19960;-77
2023/11/11 10:38:54;;;;;;;;;;;8.10;99.90;;;;;;21350807;27;20401;-78
2023/11/11 10:48:54;;;;;;;;;;;8.60;99.90;;;;;;21343359;27;19975;-78
2023/11/11 10:58:56;;;;;;;;;;;8.60;99.90;;;;;;21358488;27;19915;-78
2023/11/11 11:09:14;;;;;;;;;;;8.60;99.90;;;;;;21363382;27;19918;-78
2023/11/11 11:19:15;;;;;;;;;;;8.30;99.90;;;;;;21357894;27;19922;-78
2023/11/11 11:29:17;;;;;;;;;;;7.70;99.90;;;;;;21314558;27;19947;-77
2023/11/11 11:39:20;;;;;;;;;;;7.80;99.90;;;;;;21188629;28;21177;-79
2023/11/11 11:49:21;;;;;;;;;;;8.20;99.90;;;;;;21183777;28;20267;-76
2023/11/11 11:59:21;;;;;;;;;;;9.10;99.90;;;;;;21186184;27;19916;-79
2023/11/11 12:09:22;;;;;;;;;;;9.50;99.90;;;;;;21185338;28;20572;-79
2023/11/11 12:19:26;;;;;;;;;;;9.00;99.90;;;;;;21184664;28;19938;-79
2023/11/11 12:29:28;;;;;;;;;;;8.40;99.90;;;;;;21171864;28;19916;-78
2023/11/11 12:39:28;;;;;;;;;;;8.20;99.90;;;;;;21181640;28;19916;-79
2023/11/11 12:49:29;;;;;;;;;;;8.10;99.90;;;;;;21184009;28;20371;-78
2023/11/11 12:59:30;;;;;;;;;;;7.30;99.90;;;;;;21178075;27;19915;-78
2023/11/11 13:09:43;;;;;;;;;;;6.50;99.90;;;;;;21176500;27;20003;-77
2023/11/11 13:19:45;;;;;;;;;;;6.30;99.90;;;;;;21173299;27;19962;-77
2023/11/11 13:29:46;;;;;;;;;;;6.60;99.90;;;;;;21172691;28;19996;-77
2023/11/11 13:39:51;;;;;;;;;;;6.70;99.90;;;;;;21169700;28;19916;-78
2023/11/11 13:49:51;;;;;;;;;;;6.50;99.90;;;;;;21164659;28;19978;-77
2023/11/11 13:59:52;;;;;;;;;;;6.50;99.90;;;;;;21168883;28;20007;-78
2023/11/11 14:09:53;;;;;;;;;;;6.70;99.90;;;;;;21162849;27;19943;-77
2023/11/11 14:19:54;;;;;;;;;;;6.70;99.90;;;;;;21164554;28;19915;-77
2023/11/11 14:29:54;;;;;;;;;;;7.00;99.90;;;;;;21224096;27;20158;-78
2023/11/11 14:39:55;;;;;;;;;;;6.80;99.90;;;;;;21357592;27;19919;-77
2023/11/11 14:49:56;;;;;;;;;;;6.60;99.90;;;;;;21368569;27;20002;-77
2023/11/11 14:59:57;;;;;;;;;;;6.50;99.90;;;;;;21378818;27;19915;-77
2023/11/11 15:09:58;;;;;;;;;;;6.50;99.90;;;;;;21380934;27;19918;-77
2023/11/11 15:19:58;;;;;;;;;;;6.40;99.90;;;;;;21337109;27;19914;-76
2023/11/11 15:29:59;;;;;;;;;;;6.30;99.90;;;;;;21360307;27;19922;-77
2023/11/11 15:40:00;;;;;;;;;;;6.20;99.90;;;;;;21351457;27;19915;-78
2023/11/11 15:50:01;;;;;;;;;;;6.00;99.90;;;;;;21338287;27;19919;-76
2023/11/11 16:00:02;;;;;;;;;;;5.90;99.90;;;;;;21340727;27;19922;-77
2023/11/11 16:10:11;;;;;;;;;;;5.80;99.90;;;;;;21329882;27;19918;-77
2023/11/11 16:20:14;;;;;;;;;;;5.70;99.90;;;;;;21343194;27;20289;-76
2023/11/11 16:30:15;;;;;;;;;;;5.60;99.90;;;;;;21286188;27;20386;-77
2023/11/11 16:40:15;;;;;;;;;;;5.50;99.90;;;;;;21162522;28;19974;-77
2023/11/11 16:50:17;;;;;;;;;;;5.50;99.90;;;;;;21160275;28;19912;-77
2023/11/11 17:00:19;;;;;;;;;;;5.40;99.90;;;;;;21166625;27;19915;-77
2023/11/11 17:10:23;;;;;;;;;;;5.40;99.90;;;;;;21159283;28;20022;-76
2023/11/11 17:20:24;;;;;;;;;;;5.40;99.90;;;;;;21159821;28;20043;-77
2023/11/11 17:30:24;;;;;;;;;;;5.30;99.90;;;;;;21158856;28;19920;-78
2023/11/11 17:40:25;;;;;;;;;;;5.30;99.90;;;;;;21158775;28;19916;-77
2023/11/11 17:50:26;;;;;;;;;;;5.30;99.90;;;;;;21158391;28;19959;-77
2023/11/11 18:00:27;;;;;;;;;;;5.20;99.90;;;;;;21159404;27;19923;-77
2023/11/11 18:10:28;;;;;;;;;;;5.10;99.90;;;;;;21156985;28;20020;-77
2023/11/11 18:20:30;;;;;;;;;;;5.10;99.90;;;;;;21156407;28;20394;-77
2023/11/11 18:30:30;;;;;;;;;;;5.20;99.90;;;;;;21184535;28;21344;-77
2023/11/11 18:40:32;;;;;;;;;;;5.30;99.90;;;;;;21240490;27;19998;-78
2023/11/11 18:50:32;;;;;;;;;;;5.40;99.90;;;;;;21240252;27;19911;-77
2023/11/11 19:00:33;;;;;;;;;;;5.40;99.90;;;;;;21243664;27;20381;-77
2023/11/11 19:10:34;;;;;;;;;;;5.30;99.90;;;;;;21238157;27;19912;-78
2023/11/11 19:20:35;;;;;;;;;;;5.20;99.90;;;;;;21252546;27;19969;-78
2023/11/11 19:30:36;;;;;;;;;;;5.20;99.90;;;;;;21225114;27;19962;-78
2023/11/11 19:40:37;;;;;;;;;;;5.00;99.90;;;;;;21155641;28;19916;-77
2023/11/11 19:50:38;;;;;;;;;;;5.10;99.90;;;;;;21162177;28;20405;-77
2023/11/11 20:00:38;;;;;;;;;;;5.20;99.90;;;;;;21170460;27;19919;-77
2023/11/11 20:10:39;;;;;;;;;;;5.30;99.90;;;;;;21166743;28;19981;-77
2023/11/11 20:20:39;;;;;;;;;;;5.30;99.90;;;;;;21163983;27;19949;-77
2023/11/11 20:30:40;;;;;;;;;;;5.40;99.90;;;;;;21176366;27;19922;-76
2023/11/11 20:40:41;;;;;;;;;;;5.40;99.90;;;;;;21248924;27;20382;-76
2023/11/11 20:50:42;;;;;;;;;;;5.30;99.90;;;;;;21248983;27;19956;-76
2023/11/11 21:00:43;;;;;;;;;;;4.90;99.90;;;;;;21248722;27;20362;-78
2023/11/11 21:10:44;;;;;;;;;;;4.90;99.90;;;;;;21228095;27;19911;-78
2023/11/11 21:20:44;;;;;;;;;;;4.60;99.90;;;;;;21234884;27;19922;-78
2023/11/11 21:30:45;;;;;;;;;;;4.40;99.90;;;;;;21214358;27;19977;-77
2023/11/11 21:40:46;;;;;;;;;;;4.30;99.90;;;;;;21157033;28;19919;-77
2023/11/11 21:50:46;;;;;;;;;;;4.50;99.90;;;;;;21150740;28;19911;-77
2023/11/11 22:00:49;;;;;;;;;;;4.10;99.90;;;;;;21153307;27;21422;-76
2023/11/11 22:10:51;;;;;;;;;;;3.70;99.90;;;;;;21154011;28;20375;-76
2023/11/11 22:20:53;;;;;;;;;;;3.40;99.90;;;;;;21155241;28;19915;-76
2023/11/11 22:30:54;;;;;;;;;;;3.40;99.90;;;;;;21188553;28;20401;-76
2023/11/11 22:40:54;;;;;;;;;;;3.80;99.90;;;;;;21237855;28;19939;-75
2023/11/11 22:50:55;;;;;;;;;;;3.70;99.90;;;;;;21244947;27;19992;-76
2023/11/11 23:00:58;;;;;;;;;;;3.00;99.90;;;;;;21255118;27;20378;-77
2023/11/11 23:11:00;;;;;;;;;;;2.40;99.90;;;;;;21255862;27;20002;-75
2023/11/11 23:21:01;;;;;;;;;;;2.40;99.90;;;;;;21252590;27;19915;-77
2023/11/11 23:31:04;;;;;;;;;;;2.60;99.90;;;;;;21217842;27;19915;-75
2023/11/11 23:41:05;;;;;;;;;;;2.60;99.90;;;;;;21168074;28;19922;-75
2023/11/11 23:51:10;;;;;;;;;;;2.50;99.90;;;;;;21167734;28;19919;-76
